createdAt,value
2023-03-24T00:00:10.206Z,984.89
2023-03-24T00:01:10.201Z,984.86
2023-03-24T00:02:10.226Z,984.89
2023-03-24T00:03:10.213Z,984.91
2023-03-24T00:04:10.201Z,984.90
2023-03-24T00:05:10.154Z,984.91
2023-03-24T00:06:10.155Z,984.94
2023-03-24T00:07:10.123Z,984.91
2023-03-24T00:08:10.100Z,984.93
2023-03-24T00:09:10.095Z,984.93
2023-03-24T00:10:10.072Z,984.89
2023-03-24T00:11:10.083Z,984.89
2023-03-24T00:12:10.054Z,984.91
2023-03-24T00:13:10.046Z,984.90
2023-03-24T00:14:10.032Z,984.96
2023-03-24T00:15:10.026Z,984.97
2023-03-24T00:16:10.104Z,984.93
2023-03-24T00:17:10.001Z,984.95
2023-03-24T00:18:10.003Z,984.97
2023-03-24T00:19:09.975Z,984.93
2023-03-24T00:20:09.986Z,984.94
2023-03-24T00:21:09.976Z,984.94
2023-03-24T00:22:09.951Z,984.93
2023-03-24T00:23:18.022Z,984.96
2023-03-24T00:24:09.914Z,984.86
2023-03-24T00:25:09.903Z,984.84
2023-03-24T00:26:09.936Z,984.87
2023-03-24T00:27:09.895Z,984.87
2023-03-24T00:28:09.876Z,984.85
2023-03-24T00:29:09.860Z,984.85
2023-03-24T00:30:09.874Z,984.87
2023-03-24T00:31:09.895Z,984.87
2023-03-24T00:32:09.833Z,984.82
2023-03-24T00:33:09.875Z,984.88
2023-03-24T00:34:09.839Z,984.81
2023-03-24T00:35:09.827Z,984.84
2023-03-24T00:36:09.898Z,984.85
2023-03-24T00:37:09.784Z,984.84
2023-03-24T00:38:09.764Z,984.83
2023-03-24T00:39:10.342Z,984.86
2023-03-24T00:40:09.741Z,984.80
2023-03-24T00:41:09.832Z,984.88
2023-03-24T00:42:09.736Z,984.78
2023-03-24T00:43:10.341Z,984.80
2023-03-24T00:44:09.713Z,984.76
2023-03-24T00:45:09.784Z,984.74
2023-03-24T00:46:09.673Z,984.77
2023-03-24T00:47:09.794Z,984.71
2023-03-24T00:48:09.736Z,984.79
2023-03-24T00:49:09.750Z,984.62
2023-03-24T00:50:09.649Z,984.71
2023-03-24T00:51:09.779Z,984.73
2023-03-24T00:52:09.652Z,984.74
2023-03-24T00:53:09.745Z,984.66
2023-03-24T00:54:09.644Z,984.62
2023-03-24T00:55:09.772Z,984.60
2023-03-24T00:56:09.562Z,984.61
2023-03-24T00:57:09.672Z,984.57
2023-03-24T00:58:09.545Z,984.61
2023-03-24T00:59:09.561Z,984.55
2023-03-24T01:00:35.441Z,984.58
2023-03-24T01:01:09.934Z,984.52
2023-03-24T01:02:09.661Z,984.52
2023-03-24T01:03:09.668Z,984.55
2023-03-24T01:04:09.627Z,984.50
2023-03-24T01:05:10.028Z,984.48
2023-03-24T01:06:09.595Z,984.41
2023-03-24T01:07:09.870Z,984.45
2023-03-24T01:08:09.648Z,984.37
2023-03-24T01:09:09.555Z,984.31
2023-03-24T01:10:09.469Z,984.36
2023-03-24T01:11:09.497Z,984.29
2023-03-24T01:12:09.497Z,984.27
2023-03-24T01:13:09.589Z,984.25
2023-03-24T01:14:09.581Z,984.20
2023-03-24T01:15:09.422Z,984.18
2023-03-24T01:16:09.528Z,984.16
2023-03-24T01:17:09.411Z,984.14
2023-03-24T01:18:09.434Z,984.17
2023-03-24T01:19:09.621Z,984.03
2023-03-24T01:20:09.425Z,984.06
2023-03-24T01:21:09.425Z,984.08
2023-03-24T01:22:09.424Z,984.03
2023-03-24T01:23:09.365Z,984.07
2023-03-24T01:24:09.369Z,983.96
2023-03-24T01:25:09.418Z,984.02
2023-03-24T01:26:09.344Z,984.00
2023-03-24T01:27:09.292Z,983.96
2023-03-24T01:28:09.484Z,983.92
2023-03-24T01:29:09.315Z,983.94
2023-03-24T01:30:09.452Z,983.95
2023-03-24T01:31:09.220Z,983.85
2023-03-24T01:32:09.265Z,983.81
2023-03-24T01:33:10.387Z,983.81
2023-03-24T01:34:09.211Z,983.77
2023-03-24T01:35:09.332Z,983.76
2023-03-24T01:36:11.735Z,983.69
2023-03-24T01:37:09.131Z,983.69
2023-03-24T01:38:09.107Z,983.65
2023-03-24T01:39:09.078Z,983.61
2023-03-24T01:40:09.106Z,983.55
2023-03-24T01:41:09.067Z,983.65
2023-03-24T01:42:09.069Z,983.63
2023-03-24T01:43:09.034Z,983.50
2023-03-24T01:44:09.045Z,983.49
2023-03-24T01:45:09.012Z,983.48
2023-03-24T01:46:09.072Z,983.49
2023-03-24T01:47:09.014Z,983.49
2023-03-24T01:48:09.051Z,983.46
2023-03-24T01:49:08.974Z,983.46
2023-03-24T01:50:08.992Z,983.41
2023-03-24T01:51:08.963Z,983.39
2023-03-24T01:52:08.960Z,983.39
2023-03-24T01:53:08.953Z,983.34
2023-03-24T01:54:08.930Z,983.40
2023-03-24T01:55:08.912Z,983.34
2023-03-24T01:56:08.913Z,983.31
2023-03-24T01:57:09.053Z,983.36
2023-03-24T01:58:08.887Z,983.33
2023-03-24T01:59:08.871Z,983.30
2023-03-24T02:00:08.846Z,983.34
2023-03-24T02:01:08.897Z,983.28
2023-03-24T02:02:08.840Z,983.28
2023-03-24T02:03:08.810Z,983.27
2023-03-24T02:04:08.865Z,983.28
2023-03-24T02:05:08.787Z,983.27
2023-03-24T02:06:08.795Z,983.29
2023-03-24T02:07:08.796Z,983.22
2023-03-24T02:08:08.761Z,983.25
2023-03-24T02:09:08.758Z,983.25
2023-03-24T02:10:08.730Z,983.22
2023-03-24T02:11:08.724Z,983.26
2023-03-24T02:12:08.735Z,983.29
2023-03-24T02:13:08.729Z,983.23
2023-03-24T02:14:08.696Z,983.26
2023-03-24T02:15:08.700Z,983.26
2023-03-24T02:16:08.754Z,983.24
2023-03-24T02:17:08.653Z,983.20
2023-03-24T02:18:08.708Z,983.28
2023-03-24T02:19:08.635Z,983.19
2023-03-24T02:20:08.647Z,983.22
2023-03-24T02:21:08.644Z,983.27
2023-03-24T02:22:08.606Z,983.25
2023-03-24T02:23:08.614Z,983.22
2023-03-24T02:24:08.576Z,983.22
2023-03-24T02:25:08.576Z,983.25
2023-03-24T02:26:08.565Z,983.26
2023-03-24T02:27:08.594Z,983.28
2023-03-24T02:28:08.710Z,983.27
2023-03-24T02:29:08.559Z,983.23
2023-03-24T02:30:08.550Z,983.14
2023-03-24T02:31:08.515Z,983.13
2023-03-24T02:32:08.496Z,983.18
2023-03-24T02:33:08.545Z,983.15
2023-03-24T02:34:08.477Z,983.09
2023-03-24T02:35:08.459Z,983.10
2023-03-24T02:36:08.590Z,983.09
2023-03-24T02:37:08.442Z,983.06
2023-03-24T02:38:08.434Z,983.02
2023-03-24T02:39:08.420Z,983.07
2023-03-24T02:40:08.430Z,983.10
2023-03-24T02:41:08.396Z,983.06
2023-03-24T02:42:08.395Z,983.09
2023-03-24T02:43:08.369Z,983.04
2023-03-24T02:44:08.407Z,983.01
2023-03-24T02:45:08.379Z,982.96
2023-03-24T02:46:08.374Z,983.05
2023-03-24T02:47:08.327Z,982.98
2023-03-24T02:48:09.999Z,983.00
2023-03-24T02:49:08.314Z,983.00
2023-03-24T02:50:08.300Z,983.01
2023-03-24T02:51:08.297Z,982.95
2023-03-24T02:52:08.281Z,982.94
2023-03-24T02:53:08.251Z,982.95
2023-03-24T02:54:08.301Z,982.95
2023-03-24T02:55:08.273Z,982.87
2023-03-24T02:56:08.317Z,982.88
2023-03-24T02:57:08.269Z,982.91
2023-03-24T02:58:08.200Z,982.84
2023-03-24T02:59:08.194Z,982.84
2023-03-24T03:00:08.201Z,982.81
2023-03-24T03:01:08.205Z,982.80
2023-03-24T03:02:08.186Z,982.75
2023-03-24T03:03:08.181Z,982.72
2023-03-24T03:04:08.158Z,982.73
2023-03-24T03:05:08.138Z,982.76
2023-03-24T03:06:08.116Z,982.73
2023-03-24T03:07:08.092Z,982.72
2023-03-24T03:08:08.104Z,982.74
2023-03-24T03:09:08.063Z,982.72
2023-03-24T03:10:08.067Z,982.78
2023-03-24T03:11:08.051Z,982.73
2023-03-24T03:12:08.034Z,982.72
2023-03-24T03:13:08.034Z,982.68
2023-03-24T03:14:08.039Z,982.63
2023-03-24T03:15:08.017Z,982.63
2023-03-24T03:16:08.140Z,982.67
2023-03-24T03:17:07.988Z,982.62
2023-03-24T03:18:08.032Z,982.63
2023-03-24T03:19:07.969Z,982.57
2023-03-24T03:20:08.065Z,982.56
2023-03-24T03:21:07.934Z,982.53
2023-03-24T03:22:07.948Z,982.57
2023-03-24T03:23:07.939Z,982.55
2023-03-24T03:24:07.971Z,982.53
2023-03-24T03:25:07.891Z,982.51
2023-03-24T03:26:07.885Z,982.43
2023-03-24T03:27:07.907Z,982.42
2023-03-24T03:28:07.861Z,982.33
2023-03-24T03:29:07.847Z,982.40
2023-03-24T03:30:07.849Z,982.40
2023-03-24T03:31:07.871Z,982.35
2023-03-24T03:32:08.020Z,982.35
2023-03-24T03:33:07.863Z,982.36
2023-03-24T03:34:07.803Z,982.32
2023-03-24T03:35:07.806Z,982.34
2023-03-24T03:36:07.800Z,982.24
2023-03-24T03:37:07.762Z,982.27
2023-03-24T03:38:07.768Z,982.27
2023-03-24T03:39:07.758Z,982.21
2023-03-24T03:40:07.745Z,982.22
2023-03-24T03:41:07.738Z,982.18
2023-03-24T03:42:07.723Z,982.17
2023-03-24T03:43:07.720Z,982.10
2023-03-24T03:44:07.719Z,982.10
2023-03-24T03:45:07.676Z,982.15
2023-03-24T03:46:07.732Z,982.13
2023-03-24T03:47:07.651Z,982.18
2023-03-24T03:48:07.732Z,982.15
2023-03-24T03:49:07.648Z,982.16
2023-03-24T03:50:07.648Z,982.12
2023-03-24T03:51:13.629Z,982.08
2023-03-24T03:52:08.609Z,982.06
2023-03-24T03:53:07.589Z,982.09
2023-03-24T03:54:07.605Z,982.07
2023-03-24T03:55:07.612Z,982.05
2023-03-24T03:56:07.573Z,982.05
2023-03-24T03:57:07.619Z,982.00
2023-03-24T03:58:07.560Z,981.95
2023-03-24T03:59:07.530Z,981.95
2023-03-24T04:00:07.527Z,982.03
2023-03-24T04:01:07.518Z,981.98
2023-03-24T04:02:07.552Z,982.03
2023-03-24T04:03:07.550Z,982.02
2023-03-24T04:04:07.490Z,982.02
2023-03-24T04:05:07.491Z,982.01
2023-03-24T04:06:07.475Z,982.01
2023-03-24T04:07:07.436Z,982.07
2023-03-24T04:08:07.414Z,981.98
2023-03-24T04:09:07.424Z,981.93
2023-03-24T04:10:07.410Z,981.97
2023-03-24T04:11:07.382Z,981.99
2023-03-24T04:12:07.381Z,981.97
2023-03-24T04:13:07.359Z,981.97
2023-03-24T04:14:07.359Z,981.94
2023-03-24T04:15:07.369Z,981.90
2023-03-24T04:16:07.368Z,981.88
2023-03-24T04:17:07.334Z,981.84
2023-03-24T04:18:07.368Z,981.80
2023-03-24T04:19:07.295Z,981.72
2023-03-24T04:20:07.303Z,981.72
2023-03-24T04:21:07.272Z,981.75
2023-03-24T04:22:07.290Z,981.77
2023-03-24T04:23:07.249Z,981.76
2023-03-24T04:24:07.238Z,981.80
2023-03-24T04:25:07.230Z,981.73
2023-03-24T04:26:07.232Z,981.75
2023-03-24T04:27:07.236Z,981.72
2023-03-24T04:28:07.192Z,981.69
2023-03-24T04:29:07.186Z,981.76
2023-03-24T04:30:07.192Z,981.73
2023-03-24T04:31:07.211Z,981.70
2023-03-24T04:32:07.154Z,981.68
2023-03-24T04:33:07.212Z,981.83
2023-03-24T04:34:07.132Z,981.73
2023-03-24T04:35:07.138Z,981.74
2023-03-24T04:36:07.151Z,981.73
2023-03-24T04:37:07.104Z,981.82
2023-03-24T04:38:07.088Z,981.73
2023-03-24T04:39:07.081Z,981.69
2023-03-24T04:40:07.062Z,981.69
2023-03-24T04:41:07.069Z,981.63
2023-03-24T04:42:07.050Z,981.61
2023-03-24T04:43:07.033Z,981.64
2023-03-24T04:44:07.017Z,981.60
2023-03-24T04:45:07.035Z,981.62
2023-03-24T04:46:07.059Z,981.64
2023-03-24T04:47:07.014Z,981.63
2023-03-24T04:48:07.092Z,981.66
2023-03-24T04:49:06.954Z,981.60
2023-03-24T04:50:06.982Z,981.54
2023-03-24T04:51:06.932Z,981.60
2023-03-24T04:52:06.993Z,981.55
2023-03-24T04:53:06.914Z,981.57
2023-03-24T04:54:06.932Z,981.55
2023-03-24T04:55:06.891Z,981.49
2023-03-24T04:56:06.881Z,981.48
2023-03-24T04:57:06.915Z,981.51
2023-03-24T04:58:06.893Z,981.52
2023-03-24T04:59:06.856Z,981.51
2023-03-24T05:00:06.847Z,981.54
2023-03-24T05:01:06.865Z,981.52
2023-03-24T05:02:06.847Z,981.47
2023-03-24T05:03:06.838Z,981.51
2023-03-24T05:04:06.847Z,981.43
2023-03-24T05:05:06.788Z,981.45
2023-03-24T05:06:06.785Z,981.45
2023-03-24T05:07:06.780Z,981.48
2023-03-24T05:08:06.798Z,981.49
2023-03-24T05:09:06.730Z,981.49
2023-03-24T05:10:06.734Z,981.45
2023-03-24T05:11:06.731Z,981.44
2023-03-24T05:12:06.715Z,981.40
2023-03-24T05:13:06.728Z,981.44
2023-03-24T05:14:06.718Z,981.45
2023-03-24T05:15:06.665Z,981.36
2023-03-24T05:16:06.662Z,981.30
2023-03-24T05:17:06.654Z,981.30
2023-03-24T05:18:06.666Z,981.40
2023-03-24T05:19:06.621Z,981.35
2023-03-24T05:20:06.638Z,981.37
2023-03-24T05:21:06.601Z,981.34
2023-03-24T05:22:06.611Z,981.39
2023-03-24T05:23:06.597Z,981.34
2023-03-24T05:24:06.594Z,981.36
2023-03-24T05:25:06.584Z,981.33
2023-03-24T05:26:06.542Z,981.30
2023-03-24T05:27:06.544Z,981.27
2023-03-24T05:28:06.547Z,981.23
2023-03-24T05:29:06.511Z,981.26
2023-03-24T05:30:06.520Z,981.28
2023-03-24T05:31:06.492Z,981.29
2023-03-24T05:32:06.476Z,981.28
2023-03-24T05:33:06.507Z,981.26
2023-03-24T05:34:06.445Z,981.25
2023-03-24T05:35:06.469Z,981.34
2023-03-24T05:36:06.475Z,981.39
2023-03-24T05:37:06.419Z,981.39
2023-03-24T05:38:06.407Z,981.34
2023-03-24T05:39:06.408Z,981.37
2023-03-24T05:40:06.423Z,981.40
2023-03-24T05:41:06.376Z,981.37
2023-03-24T05:42:06.358Z,981.35
2023-03-24T05:43:06.357Z,981.38
2023-03-24T05:44:06.372Z,981.42
2023-03-24T05:45:06.340Z,981.38
2023-03-24T05:46:06.340Z,981.40
2023-03-24T05:47:06.324Z,981.28
2023-03-24T05:48:06.343Z,981.30
2023-03-24T05:49:06.308Z,981.34
2023-03-24T05:50:06.290Z,981.34
2023-03-24T05:51:06.283Z,981.37
2023-03-24T05:52:06.254Z,981.39
2023-03-24T05:53:06.249Z,981.36
2023-03-24T05:54:06.359Z,981.44
2023-03-24T05:55:06.210Z,981.38
2023-03-24T05:56:06.250Z,981.34
2023-03-24T05:57:06.258Z,981.35
2023-03-24T05:58:06.181Z,981.38
2023-03-24T05:59:06.193Z,981.39
2023-03-24T06:00:06.160Z,981.41
2023-03-24T06:01:06.170Z,981.37
2023-03-24T06:02:06.185Z,981.47
2023-03-24T06:03:06.452Z,981.49
2023-03-24T06:04:06.299Z,981.44
2023-03-24T06:05:06.123Z,981.49
2023-03-24T06:06:06.098Z,981.51
2023-03-24T06:07:06.130Z,981.53
2023-03-24T06:08:06.085Z,981.55
2023-03-24T06:09:06.080Z,981.54
2023-03-24T06:10:06.049Z,981.51
2023-03-24T06:11:06.034Z,981.51
2023-03-24T06:12:06.070Z,981.54
2023-03-24T06:13:06.024Z,981.47
2023-03-24T06:14:06.018Z,981.42
2023-03-24T06:15:06.004Z,981.49
2023-03-24T06:16:06.039Z,981.52
2023-03-24T06:17:05.975Z,981.46
2023-03-24T06:18:06.108Z,981.42
2023-03-24T06:19:05.946Z,981.39
2023-03-24T06:20:05.957Z,981.37
2023-03-24T06:21:05.930Z,981.37
2023-03-24T06:22:05.949Z,981.44
2023-03-24T06:23:05.988Z,981.32
2023-03-24T06:24:13.953Z,981.39
2023-03-24T06:25:05.898Z,981.41
2023-03-24T06:26:05.905Z,981.44
2023-03-24T06:27:05.855Z,981.45
2023-03-24T06:28:05.883Z,981.43
2023-03-24T06:29:05.854Z,981.45
2023-03-24T06:30:05.870Z,981.45
2023-03-24T06:31:05.884Z,981.46
2023-03-24T06:32:05.853Z,981.44
2023-03-24T06:33:08.132Z,981.46
2023-03-24T06:34:05.799Z,981.37
2023-03-24T06:35:05.779Z,981.40
2023-03-24T06:36:05.824Z,981.38
2023-03-24T06:37:05.776Z,981.39
2023-03-24T06:38:05.795Z,981.43
2023-03-24T06:39:05.727Z,981.40
2023-03-24T06:40:05.845Z,981.40
2023-03-24T06:41:05.731Z,981.36
2023-03-24T06:42:05.786Z,981.37
2023-03-24T06:43:05.701Z,981.37
2023-03-24T06:44:05.700Z,981.34
2023-03-24T06:45:05.676Z,981.37
2023-03-24T06:46:05.786Z,981.39
2023-03-24T06:47:05.652Z,981.39
2023-03-24T06:48:05.698Z,981.40
2023-03-24T06:49:05.625Z,981.40
2023-03-24T06:50:05.639Z,981.41
2023-03-24T06:51:05.597Z,981.42
2023-03-24T06:52:05.654Z,981.46
2023-03-24T06:53:05.584Z,981.36
2023-03-24T06:54:05.575Z,981.43
2023-03-24T06:55:05.556Z,981.45
2023-03-24T06:56:05.571Z,981.44
2023-03-24T06:57:05.579Z,981.47
2023-03-24T06:58:05.531Z,981.32
2023-03-24T06:59:05.523Z,981.40
2023-03-24T07:00:05.550Z,981.40
2023-03-24T07:01:05.490Z,981.43
2023-03-24T07:02:05.553Z,981.46
2023-03-24T07:03:05.571Z,981.47
2023-03-24T07:04:05.533Z,981.51
2023-03-24T07:05:05.463Z,981.52
2023-03-24T07:06:05.441Z,981.50
2023-03-24T07:07:30.855Z,981.62
2023-03-24T07:08:33.930Z,981.53
2023-03-24T07:09:06.425Z,981.60
2023-03-24T07:10:05.391Z,981.59
2023-03-24T07:11:05.375Z,981.61
2023-03-24T07:12:05.379Z,981.70
2023-03-24T07:13:05.354Z,981.70
2023-03-24T07:14:05.368Z,981.67
2023-03-24T07:15:05.333Z,981.66
2023-03-24T07:16:05.376Z,981.63
2023-03-24T07:17:07.337Z,981.62
2023-03-24T07:18:05.506Z,981.65
2023-03-24T07:19:05.371Z,981.63
2023-03-24T07:20:05.341Z,981.75
2023-03-24T07:21:05.398Z,981.77
2023-03-24T07:22:05.953Z,981.78
2023-03-24T07:23:05.322Z,981.79
2023-03-24T07:24:05.235Z,981.85
2023-03-24T07:25:05.221Z,981.84
2023-03-24T07:26:05.226Z,981.90
2023-03-24T07:27:05.204Z,981.93
2023-03-24T07:28:05.200Z,981.89
2023-03-24T07:29:05.176Z,981.90
2023-03-24T07:30:05.289Z,982.05
2023-03-24T07:31:05.202Z,982.18
2023-03-24T07:32:05.180Z,982.10
2023-03-24T07:33:05.188Z,982.12
2023-03-24T07:34:05.112Z,982.15
2023-03-24T07:35:05.148Z,982.21
2023-03-24T07:36:05.205Z,982.34
2023-03-24T07:37:05.101Z,982.34
2023-03-24T07:38:05.309Z,982.41
2023-03-24T07:39:05.067Z,982.61
2023-03-24T07:40:05.052Z,982.75
2023-03-24T07:41:05.036Z,982.72
2023-03-24T07:42:05.044Z,982.75
2023-03-24T07:43:06.276Z,982.68
2023-03-24T07:44:05.016Z,982.78
2023-03-24T07:45:05.014Z,982.80
2023-03-24T07:46:05.056Z,982.78
2023-03-24T07:47:04.980Z,982.77
2023-03-24T07:48:05.071Z,982.76
2023-03-24T07:49:18.101Z,982.77
2023-03-24T07:50:05.952Z,982.74
2023-03-24T07:51:04.958Z,982.73
2023-03-24T07:52:04.911Z,982.67
2023-03-24T07:53:04.920Z,982.66
2023-03-24T07:54:04.997Z,982.64
2023-03-24T07:55:05.333Z,982.67
2023-03-24T07:56:20.052Z,982.71
2023-03-24T07:57:04.909Z,982.73
2023-03-24T07:58:04.870Z,982.71
2023-03-24T07:59:04.915Z,982.71
2023-03-24T08:00:04.853Z,982.66
2023-03-24T08:01:04.829Z,982.65
2023-03-24T08:02:05.002Z,982.70
2023-03-24T08:03:04.962Z,982.60
2023-03-24T08:04:05.110Z,982.62
2023-03-24T08:05:04.784Z,982.65
2023-03-24T08:06:04.775Z,982.61
2023-03-24T08:07:04.761Z,982.68
2023-03-24T08:08:04.754Z,982.64
2023-03-24T08:09:04.763Z,982.59
2023-03-24T08:10:04.714Z,982.61
2023-03-24T08:11:04.719Z,982.60
2023-03-24T08:12:17.447Z,982.59
2023-03-24T08:13:05.694Z,982.66
2023-03-24T08:14:04.688Z,982.64
2023-03-24T08:15:04.662Z,982.60
2023-03-24T08:16:04.695Z,982.64
2023-03-24T08:17:04.899Z,982.65
2023-03-24T08:18:04.697Z,982.67
2023-03-24T08:19:04.621Z,982.77
2023-03-24T08:20:06.005Z,982.83
2023-03-24T08:21:04.620Z,982.83
2023-03-24T08:22:04.621Z,982.88
2023-03-24T08:23:04.798Z,982.91
2023-03-24T08:24:04.642Z,982.86
2023-03-24T08:25:04.555Z,982.87
2023-03-24T08:26:04.533Z,982.92
2023-03-24T08:27:04.528Z,982.97
2023-03-24T08:28:04.565Z,982.91
2023-03-24T08:29:04.549Z,983.01
2023-03-24T08:30:04.518Z,983.02
2023-03-24T08:31:04.508Z,983.03
2023-03-24T08:32:04.562Z,982.97
2023-03-24T08:33:04.547Z,983.02
2023-03-24T08:34:04.457Z,983.02
2023-03-24T08:35:04.467Z,983.06
2023-03-24T08:36:04.508Z,982.98
2023-03-24T08:37:04.430Z,983.05
2023-03-24T08:38:06.859Z,982.99
2023-03-24T08:39:04.397Z,983.12
2023-03-24T08:40:04.436Z,983.05
2023-03-24T08:41:04.381Z,983.09
2023-03-24T08:42:04.384Z,983.12
2023-03-24T08:43:04.425Z,983.15
2023-03-24T08:44:06.368Z,983.18
2023-03-24T08:45:04.430Z,983.16
2023-03-24T08:46:04.375Z,983.22
2023-03-24T08:47:04.316Z,983.18
2023-03-24T08:48:04.319Z,983.25
2023-03-24T08:49:04.317Z,983.25
2023-03-24T08:50:04.271Z,983.25
2023-03-24T08:51:04.261Z,983.25
2023-03-24T08:52:04.290Z,983.28
2023-03-24T08:53:04.249Z,983.32
2023-03-24T08:54:04.206Z,983.33
2023-03-24T08:55:04.207Z,983.38
2023-03-24T08:56:04.204Z,983.35
2023-03-24T08:57:04.238Z,983.33
2023-03-24T08:58:04.181Z,983.32
2023-03-24T08:59:04.196Z,983.36
2023-03-24T09:00:04.153Z,983.33
2023-03-24T09:01:04.146Z,983.30
2023-03-24T09:02:04.160Z,983.28
2023-03-24T09:03:04.156Z,983.20
2023-03-24T09:04:04.129Z,983.18
2023-03-24T09:05:04.195Z,983.13
2023-03-24T09:06:04.079Z,983.14
2023-03-24T09:07:04.095Z,983.20
2023-03-24T09:08:04.090Z,983.20
2023-03-24T09:09:04.059Z,983.20
2023-03-24T09:10:04.044Z,983.22
2023-03-24T09:11:04.051Z,983.28
2023-03-24T09:12:04.090Z,983.36
2023-03-24T09:13:04.008Z,983.34
2023-03-24T09:14:04.033Z,983.26
2023-03-24T09:15:03.986Z,983.37
2023-03-24T09:16:04.078Z,983.35
2023-03-24T09:17:03.998Z,983.42
2023-03-24T09:18:04.024Z,983.49
2023-03-24T09:19:03.954Z,983.37
2023-03-24T09:20:03.963Z,983.39
2023-03-24T09:21:03.917Z,983.41
2023-03-24T09:22:03.916Z,983.48
2023-03-24T09:23:03.920Z,983.49
2023-03-24T09:24:03.903Z,983.46
2023-03-24T09:25:03.901Z,983.45
2023-03-24T09:26:03.878Z,983.43
2023-03-24T09:27:03.860Z,983.37
2023-03-24T09:28:03.849Z,983.41
2023-03-24T09:29:03.856Z,983.39
2023-03-24T09:30:03.820Z,983.47
2023-03-24T09:31:03.902Z,983.48
2023-03-24T09:32:03.792Z,983.44
2023-03-24T09:33:03.861Z,983.40
2023-03-24T09:34:04.387Z,983.34
2023-03-24T09:35:03.765Z,983.37
2023-03-24T09:36:03.810Z,983.30
2023-03-24T09:37:03.730Z,983.36
2023-03-24T09:38:03.741Z,983.40
2023-03-24T09:39:03.741Z,983.41
2023-03-24T09:40:03.730Z,983.36
2023-03-24T09:41:03.697Z,983.33
2023-03-24T09:42:03.719Z,983.34
2023-03-24T09:43:03.671Z,983.34
2023-03-24T09:44:03.673Z,983.33
2023-03-24T09:45:03.667Z,983.33
2023-03-24T09:46:03.642Z,983.29
2023-03-24T09:47:03.669Z,983.30
2023-03-24T09:48:03.658Z,983.32
2023-03-24T09:49:03.648Z,983.31
2023-03-24T09:50:03.608Z,983.34
2023-03-24T09:51:03.617Z,983.36
2023-03-24T09:52:03.619Z,983.33
2023-03-24T09:53:03.570Z,983.35
2023-03-24T09:54:03.569Z,983.33
2023-03-24T09:55:03.540Z,983.21
2023-03-24T09:56:03.550Z,983.18
2023-03-24T09:57:03.555Z,983.29
2023-03-24T09:58:03.508Z,983.22
2023-03-24T09:59:03.501Z,983.23
2023-03-24T10:00:03.495Z,983.21
2023-03-24T10:01:03.565Z,983.13
2023-03-24T10:02:03.486Z,983.22
2023-03-24T10:03:03.553Z,983.18
2023-03-24T10:04:03.678Z,983.25
2023-03-24T10:05:03.443Z,983.32
2023-03-24T10:06:03.417Z,983.28
2023-03-24T10:07:03.408Z,983.34
2023-03-24T10:08:03.421Z,983.41
2023-03-24T10:09:03.411Z,983.37
2023-03-24T10:10:03.394Z,983.48
2023-03-24T10:11:03.388Z,983.52
2023-03-24T10:12:03.376Z,983.54
2023-03-24T10:13:03.366Z,983.54
2023-03-24T10:14:04.344Z,983.60
2023-03-24T10:15:03.324Z,983.56
2023-03-24T10:16:03.357Z,983.64
2023-03-24T10:17:03.313Z,983.61
2023-03-24T10:18:03.323Z,983.66
2023-03-24T10:19:03.281Z,983.63
2023-03-24T10:20:03.302Z,983.55
2023-03-24T10:21:03.254Z,983.54
2023-03-24T10:22:03.284Z,983.60
2023-03-24T10:23:03.244Z,983.64
2023-03-24T10:24:03.257Z,983.65
2023-03-24T10:25:03.228Z,983.71
2023-03-24T10:26:03.209Z,983.77
2023-03-24T10:27:03.249Z,983.73
2023-03-24T10:28:03.197Z,983.67
2023-03-24T10:29:03.190Z,983.65
2023-03-24T10:30:03.176Z,983.67
2023-03-24T10:31:03.141Z,983.59
2023-03-24T10:32:03.208Z,983.62
2023-03-24T10:33:03.252Z,983.60
2023-03-24T10:34:03.146Z,983.60
2023-03-24T10:35:03.106Z,983.59
2023-03-24T10:36:04.715Z,983.59
2023-03-24T10:37:03.113Z,983.56
2023-03-24T10:38:03.106Z,983.51
2023-03-24T10:39:12.958Z,983.53
2023-03-24T10:40:04.072Z,983.58
2023-03-24T10:41:03.034Z,983.49
2023-03-24T10:42:04.183Z,983.57
2023-03-24T10:43:07.418Z,983.49
2023-03-24T10:44:04.055Z,983.50
2023-03-24T10:45:03.042Z,983.45
2023-03-24T10:46:03.008Z,983.51
2023-03-24T10:47:02.993Z,983.48
2023-03-24T10:48:03.010Z,983.48
2023-03-24T10:49:02.939Z,983.45
2023-03-24T10:50:12.482Z,983.48
2023-03-24T10:51:03.987Z,983.47
2023-03-24T10:52:02.939Z,983.46
2023-03-24T10:53:02.929Z,983.44
2023-03-24T10:54:03.423Z,983.45
2023-03-24T10:55:02.885Z,983.43
2023-03-24T10:56:02.917Z,983.50
2023-03-24T10:57:02.901Z,983.45
2023-03-24T10:58:02.862Z,983.46
2023-03-24T10:59:02.861Z,983.42
2023-03-24T11:00:02.908Z,983.44
2023-03-24T11:01:03.053Z,983.41
2023-03-24T11:02:02.899Z,983.42
2023-03-24T11:03:02.910Z,983.36
2023-03-24T11:04:03.451Z,983.35
2023-03-24T11:05:02.756Z,983.34
2023-03-24T11:06:02.774Z,983.36
2023-03-24T11:07:02.825Z,983.40
2023-03-24T11:08:02.916Z,983.42
2023-03-24T11:09:02.841Z,983.36
2023-03-24T11:10:02.770Z,983.39
2023-03-24T11:11:02.752Z,983.37
2023-03-24T11:12:02.727Z,983.40
2023-03-24T11:13:02.862Z,983.40
2023-03-24T11:14:02.705Z,983.37
2023-03-24T11:15:17.599Z,983.36
2023-03-24T11:16:03.735Z,983.36
2023-03-24T11:17:02.684Z,983.45
2023-03-24T11:18:02.645Z,983.35
2023-03-24T11:19:02.613Z,983.33
2023-03-24T11:20:02.590Z,983.33
2023-03-24T11:21:02.601Z,983.28
2023-03-24T11:22:02.581Z,983.31
2023-03-24T11:23:02.634Z,983.23
2023-03-24T11:24:02.553Z,983.12
2023-03-24T11:25:02.552Z,983.00
2023-03-24T11:26:02.546Z,983.04
2023-03-24T11:27:02.559Z,983.09
2023-03-24T11:28:02.500Z,983.14
2023-03-24T11:29:02.507Z,983.19
2023-03-24T11:30:02.476Z,983.20
2023-03-24T11:31:02.535Z,983.27
2023-03-24T11:32:02.542Z,983.35
2023-03-24T11:33:02.456Z,983.35
2023-03-24T11:34:02.440Z,983.39
2023-03-24T11:35:02.425Z,983.28
2023-03-24T11:36:05.973Z,983.30
2023-03-24T11:37:02.444Z,983.29
2023-03-24T11:38:02.417Z,983.26
2023-03-24T11:39:02.390Z,983.26
2023-03-24T11:40:02.398Z,983.26
2023-03-24T11:41:02.355Z,983.36
2023-03-24T11:42:02.396Z,983.50
2023-03-24T11:43:02.338Z,983.60
2023-03-24T11:44:02.330Z,983.70
2023-03-24T11:45:02.326Z,983.76
2023-03-24T11:46:02.361Z,983.81
2023-03-24T11:47:02.322Z,983.87
2023-03-24T11:48:02.366Z,983.96
2023-03-24T11:49:02.277Z,984.04
2023-03-24T11:50:02.405Z,984.12
2023-03-24T11:51:03.177Z,984.19
2023-03-24T11:52:02.265Z,984.22
2023-03-24T11:53:02.235Z,984.25
2023-03-24T11:54:02.215Z,984.27
2023-03-24T11:55:02.316Z,984.25
2023-03-24T11:56:02.273Z,984.30
2023-03-24T11:57:02.215Z,984.32
2023-03-24T11:58:02.171Z,984.29
2023-03-24T11:59:02.179Z,984.39
2023-03-24T12:00:02.151Z,984.49
2023-03-24T12:01:02.157Z,984.61
2023-03-24T12:02:02.140Z,984.58
2023-03-24T12:03:02.268Z,984.61
2023-03-24T12:04:02.170Z,984.73
2023-03-24T12:05:02.123Z,984.65
2023-03-24T12:06:02.241Z,984.61
2023-03-24T12:07:02.107Z,984.57
2023-03-24T12:08:02.060Z,984.70
2023-03-24T12:09:02.057Z,984.62
2023-03-24T12:10:02.041Z,984.60
2023-03-24T12:11:02.055Z,984.60
2023-03-24T12:12:08.160Z,984.58
2023-03-24T12:13:03.011Z,984.54
2023-03-24T12:14:02.027Z,984.51
2023-03-24T12:15:02.017Z,984.45
2023-03-24T12:16:02.011Z,984.43
2023-03-24T12:17:01.951Z,984.40
2023-03-24T12:18:02.012Z,984.34
2023-03-24T12:19:01.967Z,984.22
2023-03-24T12:20:01.947Z,984.00
2023-03-24T12:21:01.916Z,983.82
2023-03-24T12:22:01.992Z,983.68
2023-03-24T12:23:01.951Z,983.75
2023-03-24T12:24:10.091Z,983.82
2023-03-24T12:25:01.898Z,983.90
2023-03-24T12:26:01.872Z,984.05
2023-03-24T12:27:01.871Z,984.16
2023-03-24T12:28:01.837Z,984.31